sensor_id;sensor_type;location;lat;lon;timestamp;P1;durP1;ratioP1;P2;durP2;ratioP2
16288;SDS011;26089;43.538;5.250;2023-03-23T00:01:25;9.30;;;5.60;;
16288;SDS011;26089;43.538;5.250;2023-03-23T00:03:57;8.83;;;5.83;;
16288;SDS011;26089;43.538;5.250;2023-03-23T00:06:26;6.07;;;5.47;;
16288;SDS011;26089;43.538;5.250;2023-03-23T00:08:58;6.80;;;5.60;;
16288;SDS011;26089;43.538;5.250;2023-03-23T00:11:27;6.13;;;5.47;;
16288;SDS011;26089;43.538;5.250;2023-03-23T00:13:56;6.37;;;5.67;;
16288;SDS011;26089;43.538;5.250;2023-03-23T00:16:26;6.30;;;5.37;;
16288;SDS011;26089;43.538;5.250;2023-03-23T00:18:58;5.57;;;5.10;;
16288;SDS011;26089;43.538;5.250;2023-03-23T00:21:27;5.83;;;5.23;;
16288;SDS011;26089;43.538;5.250;2023-03-23T00:24:00;10.97;;;6.33;;
16288;SDS011;26089;43.538;5.250;2023-03-23T00:26:28;6.30;;;5.70;;
16288;SDS011;26089;43.538;5.250;2023-03-23T00:28:59;7.07;;;6.37;;
16288;SDS011;26089;43.538;5.250;2023-03-23T00:31:26;7.77;;;6.20;;
16288;SDS011;26089;43.538;5.250;2023-03-23T00:33:58;7.90;;;6.37;;
16288;SDS011;26089;43.538;5.250;2023-03-23T00:36:27;9.33;;;6.30;;
16288;SDS011;26089;43.538;5.250;2023-03-23T00:38:54;7.67;;;6.03;;
16288;SDS011;26089;43.538;5.250;2023-03-23T00:41:24;6.77;;;5.60;;
16288;SDS011;26089;43.538;5.250;2023-03-23T00:43:53;6.13;;;4.97;;
16288;SDS011;26089;43.538;5.250;2023-03-23T00:46:21;6.93;;;5.47;;
16288;SDS011;26089;43.538;5.250;2023-03-23T00:48:47;6.00;;;5.00;;
16288;SDS011;26089;43.538;5.250;2023-03-23T00:51:17;7.30;;;6.10;;
16288;SDS011;26089;43.538;5.250;2023-03-23T00:53:45;8.20;;;5.93;;
16288;SDS011;26089;43.538;5.250;2023-03-23T00:56:12;6.00;;;5.40;;
16288;SDS011;26089;43.538;5.250;2023-03-23T00:58:40;7.87;;;5.93;;
16288;SDS011;26089;43.538;5.250;2023-03-23T01:01:07;8.67;;;5.83;;
16288;SDS011;26089;43.538;5.250;2023-03-23T01:03:35;5.90;;;5.00;;
16288;SDS011;26089;43.538;5.250;2023-03-23T01:06:06;7.47;;;6.00;;
16288;SDS011;26089;43.538;5.250;2023-03-23T01:08:38;6.17;;;5.67;;
16288;SDS011;26089;43.538;5.250;2023-03-23T01:11:10;6.17;;;5.57;;
16288;SDS011;26089;43.538;5.250;2023-03-23T01:13:39;7.07;;;6.20;;
16288;SDS011;26089;43.538;5.250;2023-03-23T01:16:06;5.87;;;5.37;;
16288;SDS011;26089;43.538;5.250;2023-03-23T01:18:34;6.60;;;6.00;;
16288;SDS011;26089;43.538;5.250;2023-03-23T01:21:03;6.43;;;5.83;;
16288;SDS011;26089;43.538;5.250;2023-03-23T01:23:32;7.53;;;5.40;;
16288;SDS011;26089;43.538;5.250;2023-03-23T01:26:03;8.33;;;5.80;;
16288;SDS011;26089;43.538;5.250;2023-03-23T01:28:32;9.40;;;6.27;;
16288;SDS011;26089;43.538;5.250;2023-03-23T01:31:00;6.47;;;5.87;;
16288;SDS011;26089;43.538;5.250;2023-03-23T01:33:27;6.83;;;5.70;;
16288;SDS011;26089;43.538;5.250;2023-03-23T01:35:55;6.43;;;5.77;;
16288;SDS011;26089;43.538;5.250;2023-03-23T01:38:21;7.90;;;5.93;;
16288;SDS011;26089;43.538;5.250;2023-03-23T01:40:49;6.53;;;5.93;;
16288;SDS011;26089;43.538;5.250;2023-03-23T01:43:17;7.97;;;6.37;;
16288;SDS011;26089;43.538;5.250;2023-03-23T01:45:44;8.27;;;6.57;;
16288;SDS011;26089;43.538;5.250;2023-03-23T01:48:13;11.20;;;7.00;;
16288;SDS011;26089;43.538;5.250;2023-03-23T01:50:47;8.77;;;6.17;;
16288;SDS011;26089;43.538;5.250;2023-03-23T01:53:20;7.40;;;6.70;;
16288;SDS011;26089;43.538;5.250;2023-03-23T01:55:49;8.73;;;7.00;;
16288;SDS011;26089;43.538;5.250;2023-03-23T01:58:21;9.13;;;6.77;;
16288;SDS011;26089;43.538;5.250;2023-03-23T02:00:52;8.37;;;6.63;;
16288;SDS011;26089;43.538;5.250;2023-03-23T02:03:20;8.50;;;6.70;;
16288;SDS011;26089;43.538;5.250;2023-03-23T02:05:48;7.47;;;6.43;;
16288;SDS011;26089;43.538;5.250;2023-03-23T02:08:16;9.53;;;6.60;;
16288;SDS011;26089;43.538;5.250;2023-03-23T02:10:44;7.17;;;6.43;;
16288;SDS011;26089;43.538;5.250;2023-03-23T02:13:11;11.33;;;6.80;;
16288;SDS011;26089;43.538;5.250;2023-03-23T02:15:54;6.87;;;6.13;;
16288;SDS011;26089;43.538;5.250;2023-03-23T02:18:31;9.23;;;6.77;;
16288;SDS011;26089;43.538;5.250;2023-03-23T02:27:17;9.53;;;7.07;;
16288;SDS011;26089;43.538;5.250;2023-03-23T02:35:47;9.23;;;7.47;;
16288;SDS011;26089;43.538;5.250;2023-03-23T02:38:20;7.73;;;6.23;;
16288;SDS011;26089;43.538;5.250;2023-03-23T02:40:51;8.10;;;6.87;;
16288;SDS011;26089;43.538;5.250;2023-03-23T02:43:21;7.60;;;6.90;;
16288;SDS011;26089;43.538;5.250;2023-03-23T02:45:51;8.23;;;6.53;;
16288;SDS011;26089;43.538;5.250;2023-03-23T02:48:22;9.67;;;7.57;;
16288;SDS011;26089;43.538;5.250;2023-03-23T02:50:54;7.13;;;6.33;;
16288;SDS011;26089;43.538;5.250;2023-03-23T02:53:23;8.50;;;7.30;;
16288;SDS011;26089;43.538;5.250;2023-03-23T02:55:52;11.63;;;7.03;;
16288;SDS011;26089;43.538;5.250;2023-03-23T02:58:21;8.27;;;7.37;;
16288;SDS011;26089;43.538;5.250;2023-03-23T03:00:48;12.17;;;8.13;;
16288;SDS011;26089;43.538;5.250;2023-03-23T03:03:16;8.83;;;8.00;;
16288;SDS011;26089;43.538;5.250;2023-03-23T03:05:51;9.70;;;8.03;;
16288;SDS011;26089;43.538;5.250;2023-03-23T03:08:26;7.80;;;7.00;;
16288;SDS011;26089;43.538;5.250;2023-03-23T03:11:02;9.80;;;7.47;;
16288;SDS011;26089;43.538;5.250;2023-03-23T03:13:35;10.37;;;7.40;;
16288;SDS011;26089;43.538;5.250;2023-03-23T03:16:11;11.60;;;7.30;;
16288;SDS011;26089;43.538;5.250;2023-03-23T03:18:45;11.77;;;8.10;;
16288;SDS011;26089;43.538;5.250;2023-03-23T03:21:19;9.23;;;8.33;;
16288;SDS011;26089;43.538;5.250;2023-03-23T03:26:21;10.20;;;7.80;;
16288;SDS011;26089;43.538;5.250;2023-03-23T03:28:51;8.57;;;7.77;;
16288;SDS011;26089;43.538;5.250;2023-03-23T03:31:19;9.13;;;7.67;;
16288;SDS011;26089;43.538;5.250;2023-03-23T03:33:48;10.83;;;8.20;;
16288;SDS011;26089;43.538;5.250;2023-03-23T03:36:16;12.70;;;7.93;;
16288;SDS011;26089;43.538;5.250;2023-03-23T03:38:48;9.80;;;8.73;;
16288;SDS011;26089;43.538;5.250;2023-03-23T03:41:17;8.77;;;7.87;;
16288;SDS011;26089;43.538;5.250;2023-03-23T03:43:45;8.33;;;7.50;;
16288;SDS011;26089;43.538;5.250;2023-03-23T03:46:12;9.30;;;8.23;;
16288;SDS011;26089;43.538;5.250;2023-03-23T03:48:39;14.03;;;8.90;;
16288;SDS011;26089;43.538;5.250;2023-03-23T03:51:06;9.20;;;7.97;;
16288;SDS011;26089;43.538;5.250;2023-03-23T03:53:35;12.57;;;8.50;;
16288;SDS011;26089;43.538;5.250;2023-03-23T03:56:02;12.23;;;8.47;;
16288;SDS011;26089;43.538;5.250;2023-03-23T03:58:30;13.67;;;9.83;;
16288;SDS011;26089;43.538;5.250;2023-03-23T04:00:58;12.50;;;8.63;;
16288;SDS011;26089;43.538;5.250;2023-03-23T04:03:25;12.00;;;9.07;;
16288;SDS011;26089;43.538;5.250;2023-03-23T04:05:53;12.43;;;9.00;;
16288;SDS011;26089;43.538;5.250;2023-03-23T04:08:21;11.77;;;9.70;;
16288;SDS011;26089;43.538;5.250;2023-03-23T04:10:50;10.63;;;8.50;;
16288;SDS011;26089;43.538;5.250;2023-03-23T04:13:17;10.43;;;8.03;;
16288;SDS011;26089;43.538;5.250;2023-03-23T04:15:45;10.93;;;8.93;;
16288;SDS011;26089;43.538;5.250;2023-03-23T04:18:12;8.43;;;7.53;;
16288;SDS011;26089;43.538;5.250;2023-03-23T04:20:42;8.90;;;7.87;;
16288;SDS011;26089;43.538;5.250;2023-03-23T04:23:09;8.97;;;8.07;;
16288;SDS011;26089;43.538;5.250;2023-03-23T04:25:36;8.30;;;7.50;;
16288;SDS011;26089;43.538;5.250;2023-03-23T04:28:06;11.80;;;7.73;;
16288;SDS011;26089;43.538;5.250;2023-03-23T04:30:35;9.67;;;7.27;;
16288;SDS011;26089;43.538;5.250;2023-03-23T04:33:02;8.57;;;7.47;;
16288;SDS011;26089;43.538;5.250;2023-03-23T04:35:29;8.83;;;7.47;;
16288;SDS011;26089;43.538;5.250;2023-03-23T04:37:57;8.50;;;7.47;;
16288;SDS011;26089;43.538;5.250;2023-03-23T04:40:24;8.77;;;7.60;;
16288;SDS011;26089;43.538;5.250;2023-03-23T04:42:51;8.73;;;7.50;;
16288;SDS011;26089;43.538;5.250;2023-03-23T04:45:23;9.03;;;7.23;;
16288;SDS011;26089;43.538;5.250;2023-03-23T04:47:51;9.27;;;5.80;;
16288;SDS011;26089;43.538;5.250;2023-03-23T04:50:22;9.20;;;7.00;;
16288;SDS011;26089;43.538;5.250;2023-03-23T04:52:51;7.17;;;6.47;;
16288;SDS011;26089;43.538;5.250;2023-03-23T04:55:22;6.47;;;5.87;;
16288;SDS011;26089;43.538;5.250;2023-03-23T04:57:50;6.73;;;5.97;;
16288;SDS011;26089;43.538;5.250;2023-03-23T05:00:17;7.33;;;6.10;;
16288;SDS011;26089;43.538;5.250;2023-03-23T05:02:47;6.90;;;6.20;;
16288;SDS011;26089;43.538;5.250;2023-03-23T05:05:17;6.63;;;5.63;;
16288;SDS011;26089;43.538;5.250;2023-03-23T05:07:44;7.23;;;6.23;;
16288;SDS011;26089;43.538;5.250;2023-03-23T05:10:12;6.93;;;6.30;;
16288;SDS011;26089;43.538;5.250;2023-03-23T05:12:40;7.53;;;5.57;;
16288;SDS011;26089;43.538;5.250;2023-03-23T05:15:08;9.37;;;6.43;;
16288;SDS011;26089;43.538;5.250;2023-03-23T05:17:36;7.50;;;6.20;;
16288;SDS011;26089;43.538;5.250;2023-03-23T05:20:06;8.07;;;6.10;;
16288;SDS011;26089;43.538;5.250;2023-03-23T05:22:36;7.57;;;6.20;;
16288;SDS011;26089;43.538;5.250;2023-03-23T05:25:04;8.90;;;5.90;;
16288;SDS011;26089;43.538;5.250;2023-03-23T05:27:34;9.53;;;6.03;;
16288;SDS011;26089;43.538;5.250;2023-03-23T05:30:01;6.90;;;6.20;;
16288;SDS011;26089;43.538;5.250;2023-03-23T05:32:28;6.77;;;6.10;;
16288;SDS011;26089;43.538;5.250;2023-03-23T05:34:56;7.27;;;6.10;;
16288;SDS011;26089;43.538;5.250;2023-03-23T05:37:25;6.70;;;5.80;;
16288;SDS011;26089;43.538;5.250;2023-03-23T05:39:53;8.60;;;6.33;;
16288;SDS011;26089;43.538;5.250;2023-03-23T05:42:20;9.90;;;5.97;;
16288;SDS011;26089;43.538;5.250;2023-03-23T05:44:47;7.30;;;6.10;;
16288;SDS011;26089;43.538;5.250;2023-03-23T05:47:15;8.73;;;6.20;;
16288;SDS011;26089;43.538;5.250;2023-03-23T05:49:43;7.20;;;6.50;;
16288;SDS011;26089;43.538;5.250;2023-03-23T05:52:10;8.20;;;6.77;;
16288;SDS011;26089;43.538;5.250;2023-03-23T05:54:38;7.30;;;6.70;;
16288;SDS011;26089;43.538;5.250;2023-03-23T05:57:06;6.70;;;6.10;;
16288;SDS011;26089;43.538;5.250;2023-03-23T05:59:34;7.77;;;6.20;;
16288;SDS011;26089;43.538;5.250;2023-03-23T06:02:01;8.43;;;6.43;;
16288;SDS011;26089;43.538;5.250;2023-03-23T06:04:28;7.97;;;7.20;;
16288;SDS011;26089;43.538;5.250;2023-03-23T06:06:55;8.60;;;7.20;;
16288;SDS011;26089;43.538;5.250;2023-03-23T06:09:22;9.90;;;7.30;;
16288;SDS011;26089;43.538;5.250;2023-03-23T06:11:51;7.43;;;6.33;;
16288;SDS011;26089;43.538;5.250;2023-03-23T06:14:18;8.17;;;6.43;;
16288;SDS011;26089;43.538;5.250;2023-03-23T06:16:46;8.70;;;7.27;;
16288;SDS011;26089;43.538;5.250;2023-03-23T06:19:13;10.43;;;8.27;;
16288;SDS011;26089;43.538;5.250;2023-03-23T06:21:40;9.27;;;7.33;;
16288;SDS011;26089;43.538;5.250;2023-03-23T06:24:08;6.73;;;5.83;;
16288;SDS011;26089;43.538;5.250;2023-03-23T06:26:36;6.57;;;5.97;;
16288;SDS011;26089;43.538;5.250;2023-03-23T06:29:07;7.83;;;6.80;;
16288;SDS011;26089;43.538;5.250;2023-03-23T06:31:37;6.60;;;6.00;;
16288;SDS011;26089;43.538;5.250;2023-03-23T06:34:05;7.73;;;6.80;;
16288;SDS011;26089;43.538;5.250;2023-03-23T06:36:33;7.13;;;5.83;;
16288;SDS011;26089;43.538;5.250;2023-03-23T06:39:01;8.90;;;5.40;;
16288;SDS011;26089;43.538;5.250;2023-03-23T06:41:29;7.57;;;5.73;;
16288;SDS011;26089;43.538;5.250;2023-03-23T06:43:56;8.43;;;6.90;;
16288;SDS011;26089;43.538;5.250;2023-03-23T06:46:24;8.60;;;7.03;;
16288;SDS011;26089;43.538;5.250;2023-03-23T06:48:52;9.70;;;7.73;;
16288;SDS011;26089;43.538;5.250;2023-03-23T06:51:19;7.27;;;6.50;;
16288;SDS011;26089;43.538;5.250;2023-03-23T06:53:46;10.30;;;7.50;;
16288;SDS011;26089;43.538;5.250;2023-03-23T06:56:13;10.13;;;8.53;;
16288;SDS011;26089;43.538;5.250;2023-03-23T06:58:41;9.53;;;7.13;;
16288;SDS011;26089;43.538;5.250;2023-03-23T07:01:08;9.10;;;7.03;;
16288;SDS011;26089;43.538;5.250;2023-03-23T07:03:37;8.30;;;7.50;;
16288;SDS011;26089;43.538;5.250;2023-03-23T07:06:04;9.83;;;7.30;;
16288;SDS011;26089;43.538;5.250;2023-03-23T07:08:32;7.97;;;6.67;;
16288;SDS011;26089;43.538;5.250;2023-03-23T07:10:59;6.70;;;6.17;;
16288;SDS011;26089;43.538;5.250;2023-03-23T07:13:26;8.43;;;6.50;;
16288;SDS011;26089;43.538;5.250;2023-03-23T07:15:53;10.50;;;7.53;;
16288;SDS011;26089;43.538;5.250;2023-03-23T07:18:20;8.17;;;7.37;;
16288;SDS011;26089;43.538;5.250;2023-03-23T07:20:49;9.10;;;7.47;;
16288;SDS011;26089;43.538;5.250;2023-03-23T07:23:17;9.53;;;7.50;;
16288;SDS011;26089;43.538;5.250;2023-03-23T07:25:44;8.30;;;7.50;;
16288;SDS011;26089;43.538;5.250;2023-03-23T07:28:13;8.27;;;7.37;;
16288;SDS011;26089;43.538;5.250;2023-03-23T07:30:41;9.40;;;7.70;;
16288;SDS011;26089;43.538;5.250;2023-03-23T07:33:08;9.93;;;7.70;;
16288;SDS011;26089;43.538;5.250;2023-03-23T07:35:35;11.33;;;8.10;;
16288;SDS011;26089;43.538;5.250;2023-03-23T07:38:04;9.97;;;7.73;;
16288;SDS011;26089;43.538;5.250;2023-03-23T07:40:33;7.50;;;6.80;;
16288;SDS011;26089;43.538;5.250;2023-03-23T07:43:02;6.70;;;6.00;;
16288;SDS011;26089;43.538;5.250;2023-03-23T07:45:29;7.53;;;6.10;;
16288;SDS011;26089;43.538;5.250;2023-03-23T07:47:57;6.50;;;4.67;;
16288;SDS011;26089;43.538;5.250;2023-03-23T07:50:24;7.97;;;5.30;;
16288;SDS011;26089;43.538;5.250;2023-03-23T07:52:53;6.03;;;4.37;;
16288;SDS011;26089;43.538;5.250;2023-03-23T07:55:22;4.30;;;3.90;;
16288;SDS011;26089;43.538;5.250;2023-03-23T07:57:50;6.23;;;3.87;;
16288;SDS011;26089;43.538;5.250;2023-03-23T08:00:19;8.40;;;4.33;;
16288;SDS011;26089;43.538;5.250;2023-03-23T08:02:50;6.07;;;3.93;;
16288;SDS011;26089;43.538;5.250;2023-03-23T08:05:18;7.20;;;4.50;;
16288;SDS011;26089;43.538;5.250;2023-03-23T08:07:47;9.07;;;4.17;;
16288;SDS011;26089;43.538;5.250;2023-03-23T08:10:14;5.47;;;4.13;;
16288;SDS011;26089;43.538;5.250;2023-03-23T08:12:44;5.17;;;4.30;;
16288;SDS011;26089;43.538;5.250;2023-03-23T08:15:12;5.27;;;4.57;;
16288;SDS011;26089;43.538;5.250;2023-03-23T08:17:40;6.30;;;4.27;;
16288;SDS011;26089;43.538;5.250;2023-03-23T08:20:09;7.03;;;4.30;;
16288;SDS011;26089;43.538;5.250;2023-03-23T08:22:38;9.90;;;4.93;;
16288;SDS011;26089;43.538;5.250;2023-03-23T08:25:07;7.20;;;4.60;;
16288;SDS011;26089;43.538;5.250;2023-03-23T08:27:36;5.40;;;4.00;;
16288;SDS011;26089;43.538;5.250;2023-03-23T08:30:10;7.70;;;4.70;;
16288;SDS011;26089;43.538;5.250;2023-03-23T08:32:39;4.27;;;3.43;;
16288;SDS011;26089;43.538;5.250;2023-03-23T08:35:07;6.00;;;3.80;;
16288;SDS011;26089;43.538;5.250;2023-03-23T08:37:36;5.20;;;3.70;;
16288;SDS011;26089;43.538;5.250;2023-03-23T08:40:03;6.07;;;3.43;;
16288;SDS011;26089;43.538;5.250;2023-03-23T08:42:34;5.63;;;3.67;;
16288;SDS011;26089;43.538;5.250;2023-03-23T08:45:02;4.13;;;2.93;;
16288;SDS011;26089;43.538;5.250;2023-03-23T08:47:31;5.17;;;3.10;;
16288;SDS011;26089;43.538;5.250;2023-03-23T08:49:58;4.27;;;3.87;;
16288;SDS011;26089;43.538;5.250;2023-03-23T08:52:25;3.83;;;3.53;;
16288;SDS011;26089;43.538;5.250;2023-03-23T08:54:53;5.07;;;3.20;;
16288;SDS011;26089;43.538;5.250;2023-03-23T08:57:22;7.50;;;3.87;;
16288;SDS011;26089;43.538;5.250;2023-03-23T08:59:49;4.63;;;3.43;;
16288;SDS011;26089;43.538;5.250;2023-03-23T09:02:19;5.73;;;4.00;;
16288;SDS011;26089;43.538;5.250;2023-03-23T09:04:50;4.53;;;4.03;;
16288;SDS011;26089;43.538;5.250;2023-03-23T09:07:17;5.00;;;4.50;;
16288;SDS011;26089;43.538;5.250;2023-03-23T09:09:45;5.00;;;4.53;;
16288;SDS011;26089;43.538;5.250;2023-03-23T09:12:12;3.97;;;3.53;;
16288;SDS011;26089;43.538;5.250;2023-03-23T09:14:39;7.40;;;3.30;;
16288;SDS011;26089;43.538;5.250;2023-03-23T09:17:06;4.43;;;3.53;;
16288;SDS011;26089;43.538;5.250;2023-03-23T09:19:34;3.43;;;3.20;;
16288;SDS011;26089;43.538;5.250;2023-03-23T09:22:02;5.37;;;3.33;;
16288;SDS011;26089;43.538;5.250;2023-03-23T09:24:30;3.50;;;3.20;;
16288;SDS011;26089;43.538;5.250;2023-03-23T09:26:57;5.80;;;3.07;;
16288;SDS011;26089;43.538;5.250;2023-03-23T09:29:24;3.57;;;3.30;;
16288;SDS011;26089;43.538;5.250;2023-03-23T09:31:52;4.13;;;3.57;;
16288;SDS011;26089;43.538;5.250;2023-03-23T09:34:21;7.13;;;4.23;;
16288;SDS011;26089;43.538;5.250;2023-03-23T09:36:48;5.37;;;3.77;;
16288;SDS011;26089;43.538;5.250;2023-03-23T09:39:18;4.43;;;3.90;;
16288;SDS011;26089;43.538;5.250;2023-03-23T09:41:54;6.40;;;3.87;;
16288;SDS011;26089;43.538;5.250;2023-03-23T09:44:31;5.67;;;4.17;;
16288;SDS011;26089;43.538;5.250;2023-03-23T09:47:08;4.70;;;4.30;;
16288;SDS011;26089;43.538;5.250;2023-03-23T09:49:43;10.17;;;5.07;;
16288;SDS011;26089;43.538;5.250;2023-03-23T09:52:16;5.80;;;4.03;;
16288;SDS011;26089;43.538;5.250;2023-03-23T09:54:46;6.63;;;4.27;;
16288;SDS011;26089;43.538;5.250;2023-03-23T09:57:16;4.90;;;4.33;;
16288;SDS011;26089;43.538;5.250;2023-03-23T09:59:49;5.30;;;3.80;;
16288;SDS011;26089;43.538;5.250;2023-03-23T10:02:21;3.67;;;3.37;;
16288;SDS011;26089;43.538;5.250;2023-03-23T10:04:54;4.83;;;3.90;;
16288;SDS011;26089;43.538;5.250;2023-03-23T10:07:27;5.30;;;3.57;;
16288;SDS011;26089;43.538;5.250;2023-03-23T10:09:56;3.63;;;3.33;;
16288;SDS011;26089;43.538;5.250;2023-03-23T10:12:27;3.53;;;3.23;;
16288;SDS011;26089;43.538;5.250;2023-03-23T10:17:49;4.13;;;3.60;;
16288;SDS011;26089;43.538;5.250;2023-03-23T10:20:21;4.77;;;3.40;;
16288;SDS011;26089;43.538;5.250;2023-03-23T10:23:00;5.10;;;4.17;;
16288;SDS011;26089;43.538;5.250;2023-03-23T10:25:36;4.20;;;3.80;;
16288;SDS011;26089;43.538;5.250;2023-03-23T10:28:10;8.07;;;3.97;;
16288;SDS011;26089;43.538;5.250;2023-03-23T10:30:39;4.27;;;3.40;;
16288;SDS011;26089;43.538;5.250;2023-03-23T10:33:10;6.37;;;3.77;;
16288;SDS011;26089;43.538;5.250;2023-03-23T10:35:43;4.93;;;3.37;;
16288;SDS011;26089;43.538;5.250;2023-03-23T10:38:16;5.30;;;3.83;;
16288;SDS011;26089;43.538;5.250;2023-03-23T10:40:49;4.07;;;3.20;;
16288;SDS011;26089;43.538;5.250;2023-03-23T10:43:20;3.70;;;3.40;;
16288;SDS011;26089;43.538;5.250;2023-03-23T10:45:49;5.90;;;3.07;;
16288;SDS011;26089;43.538;5.250;2023-03-23T10:48:23;4.00;;;3.50;;
16288;SDS011;26089;43.538;5.250;2023-03-23T10:50:56;5.37;;;3.70;;
16288;SDS011;26089;43.538;5.250;2023-03-23T10:53:27;5.03;;;3.67;;
16288;SDS011;26089;43.538;5.250;2023-03-23T10:55:59;3.63;;;3.33;;
16288;SDS011;26089;43.538;5.250;2023-03-23T10:58:28;6.20;;;3.30;;
16288;SDS011;26089;43.538;5.250;2023-03-23T11:00:57;7.33;;;5.30;;
16288;SDS011;26089;43.538;5.250;2023-03-23T11:06:09;7.27;;;4.00;;
16288;SDS011;26089;43.538;5.250;2023-03-23T11:08:38;5.23;;;2.93;;
16288;SDS011;26089;43.538;5.250;2023-03-23T11:11:17;3.27;;;3.07;;
16288;SDS011;26089;43.538;5.250;2023-03-23T11:13:47;4.67;;;3.37;;
16288;SDS011;26089;43.538;5.250;2023-03-23T11:16:23;2.53;;;2.33;;
16288;SDS011;26089;43.538;5.250;2023-03-23T11:18:51;2.60;;;2.40;;
16288;SDS011;26089;43.538;5.250;2023-03-23T11:21:19;3.17;;;2.97;;
16288;SDS011;26089;43.538;5.250;2023-03-23T11:23:48;2.93;;;2.23;;
16288;SDS011;26089;43.538;5.250;2023-03-23T11:26:19;2.30;;;1.97;;
16288;SDS011;26089;43.538;5.250;2023-03-23T11:28:52;4.50;;;2.37;;
16288;SDS011;26089;43.538;5.250;2023-03-23T11:31:22;3.97;;;2.53;;
16288;SDS011;26089;43.538;5.250;2023-03-23T11:33:52;8.53;;;5.00;;
16288;SDS011;26089;43.538;5.250;2023-03-23T11:36:28;9.60;;;6.40;;
16288;SDS011;26089;43.538;5.250;2023-03-23T11:38:57;2.73;;;2.37;;
16288;SDS011;26089;43.538;5.250;2023-03-23T11:41:28;2.27;;;1.87;;
16288;SDS011;26089;43.538;5.250;2023-03-23T11:44:01;2.03;;;1.73;;
16288;SDS011;26089;43.538;5.250;2023-03-23T11:46:34;2.13;;;2.00;;
16288;SDS011;26089;43.538;5.250;2023-03-23T11:49:09;4.57;;;2.70;;
16288;SDS011;26089;43.538;5.250;2023-03-23T11:51:42;3.63;;;2.47;;
16288;SDS011;26089;43.538;5.250;2023-03-23T11:54:15;2.50;;;2.07;;
16288;SDS011;26089;43.538;5.250;2023-03-23T11:56:45;4.37;;;3.03;;
16288;SDS011;26089;43.538;5.250;2023-03-23T11:59:13;5.80;;;3.97;;
16288;SDS011;26089;43.538;5.250;2023-03-23T12:01:46;3.60;;;2.50;;
16288;SDS011;26089;43.538;5.250;2023-03-23T12:04:30;3.73;;;3.13;;
16288;SDS011;26089;43.538;5.250;2023-03-23T12:07:23;5.97;;;4.10;;
16288;SDS011;26089;43.538;5.250;2023-03-23T12:10:02;3.47;;;2.10;;
16288;SDS011;26089;43.538;5.250;2023-03-23T12:12:43;3.13;;;2.03;;
16288;SDS011;26089;43.538;5.250;2023-03-23T12:15:16;3.80;;;2.00;;
16288;SDS011;26089;43.538;5.250;2023-03-23T12:17:51;3.07;;;2.20;;
16288;SDS011;26089;43.538;5.250;2023-03-23T12:20:27;5.50;;;1.60;;
16288;SDS011;26089;43.538;5.250;2023-03-23T12:23:02;2.30;;;2.10;;
16288;SDS011;26089;43.538;5.250;2023-03-23T12:25:43;3.03;;;2.13;;
16288;SDS011;26089;43.538;5.250;2023-03-23T12:28:36;2.93;;;2.17;;
16288;SDS011;26089;43.538;5.250;2023-03-23T12:31:11;3.60;;;2.30;;
16288;SDS011;26089;43.538;5.250;2023-03-23T12:33:45;6.83;;;2.23;;
16288;SDS011;26089;43.538;5.250;2023-03-23T12:36:24;3.60;;;2.00;;
16288;SDS011;26089;43.538;5.250;2023-03-23T12:39:08;2.90;;;1.73;;
16288;SDS011;26089;43.538;5.250;2023-03-23T12:42:00;2.87;;;2.10;;
16288;SDS011;26089;43.538;5.250;2023-03-23T12:44:35;2.10;;;1.73;;
16288;SDS011;26089;43.538;5.250;2023-03-23T12:47:09;3.13;;;2.90;;
16288;SDS011;26089;43.538;5.250;2023-03-23T12:49:45;2.93;;;2.23;;
16288;SDS011;26089;43.538;5.250;2023-03-23T12:52:16;2.70;;;2.10;;
16288;SDS011;26089;43.538;5.250;2023-03-23T12:54:47;3.37;;;2.00;;
16288;SDS011;26089;43.538;5.250;2023-03-23T12:57:20;2.50;;;1.70;;
16288;SDS011;26089;43.538;5.250;2023-03-23T12:59:58;4.83;;;2.27;;
16288;SDS011;26089;43.538;5.250;2023-03-23T13:02:37;2.27;;;1.90;;
16288;SDS011;26089;43.538;5.250;2023-03-23T13:05:08;3.50;;;1.80;;
16288;SDS011;26089;43.538;5.250;2023-03-23T13:07:41;2.23;;;2.03;;
16288;SDS011;26089;43.538;5.250;2023-03-23T13:10:13;4.10;;;1.53;;
16288;SDS011;26089;43.538;5.250;2023-03-23T13:12:46;2.03;;;1.80;;
16288;SDS011;26089;43.538;5.250;2023-03-23T13:15:20;2.63;;;2.07;;
16288;SDS011;26089;43.538;5.250;2023-03-23T13:17:58;3.40;;;1.53;;
16288;SDS011;26089;43.538;5.250;2023-03-23T13:20:33;1.90;;;1.50;;
16288;SDS011;26089;43.538;5.250;2023-03-23T13:23:09;3.07;;;1.80;;
16288;SDS011;26089;43.538;5.250;2023-03-23T13:25:45;2.03;;;1.47;;
16288;SDS011;26089;43.538;5.250;2023-03-23T13:28:22;3.07;;;1.60;;
16288;SDS011;26089;43.538;5.250;2023-03-23T13:30:55;3.80;;;1.90;;
16288;SDS011;26089;43.538;5.250;2023-03-23T13:33:23;5.50;;;1.77;;
16288;SDS011;26089;43.538;5.250;2023-03-23T13:35:51;2.87;;;1.83;;
16288;SDS011;26089;43.538;5.250;2023-03-23T13:38:19;3.20;;;2.10;;
16288;SDS011;26089;43.538;5.250;2023-03-23T13:40:50;2.77;;;1.70;;
16288;SDS011;26089;43.538;5.250;2023-03-23T13:43:25;3.87;;;1.73;;
16288;SDS011;26089;43.538;5.250;2023-03-23T13:45:53;3.87;;;2.10;;
16288;SDS011;26089;43.538;5.250;2023-03-23T13:48:23;1.83;;;1.40;;
16288;SDS011;26089;43.538;5.250;2023-03-23T13:50:52;6.30;;;2.60;;
16288;SDS011;26089;43.538;5.250;2023-03-23T13:53:22;2.93;;;1.70;;
16288;SDS011;26089;43.538;5.250;2023-03-23T13:56:04;3.50;;;1.83;;
16288;SDS011;26089;43.538;5.250;2023-03-23T13:58:43;2.97;;;1.80;;
16288;SDS011;26089;43.538;5.250;2023-03-23T14:01:13;4.97;;;2.40;;
16288;SDS011;26089;43.538;5.250;2023-03-23T14:03:45;2.90;;;1.73;;
16288;SDS011;26089;43.538;5.250;2023-03-23T14:06:16;2.90;;;1.50;;
16288;SDS011;26089;43.538;5.250;2023-03-23T14:08:47;1.60;;;1.50;;
16288;SDS011;26089;43.538;5.250;2023-03-23T14:11:19;6.93;;;1.90;;
16288;SDS011;26089;43.538;5.250;2023-03-23T14:13:58;4.10;;;2.20;;
16288;SDS011;26089;43.538;5.250;2023-03-23T14:16:36;3.27;;;1.73;;
16288;SDS011;26089;43.538;5.250;2023-03-23T14:19:14;4.00;;;1.87;;
16288;SDS011;26089;43.538;5.250;2023-03-23T14:21:49;5.87;;;1.83;;
16288;SDS011;26089;43.538;5.250;2023-03-23T14:24:19;2.33;;;1.77;;
16288;SDS011;26089;43.538;5.250;2023-03-23T14:26:49;6.43;;;2.00;;
16288;SDS011;26089;43.538;5.250;2023-03-23T14:29:18;4.10;;;2.30;;
16288;SDS011;26089;43.538;5.250;2023-03-23T14:31:48;3.57;;;1.97;;
16288;SDS011;26089;43.538;5.250;2023-03-23T14:34:21;2.73;;;1.63;;
16288;SDS011;26089;43.538;5.250;2023-03-23T14:36:51;4.27;;;2.47;;
16288;SDS011;26089;43.538;5.250;2023-03-23T14:39:20;3.20;;;1.70;;
16288;SDS011;26089;43.538;5.250;2023-03-23T14:41:50;2.63;;;1.87;;
16288;SDS011;26089;43.538;5.250;2023-03-23T14:44:21;3.50;;;2.00;;
16288;SDS011;26089;43.538;5.250;2023-03-23T14:46:51;4.73;;;2.50;;
16288;SDS011;26089;43.538;5.250;2023-03-23T14:49:23;4.93;;;2.03;;
16288;SDS011;26089;43.538;5.250;2023-03-23T14:51:54;2.87;;;2.00;;
16288;SDS011;26089;43.538;5.250;2023-03-23T14:54:22;4.60;;;2.23;;
16288;SDS011;26089;43.538;5.250;2023-03-23T14:56:51;2.30;;;2.10;;
16288;SDS011;26089;43.538;5.250;2023-03-23T14:59:19;4.57;;;2.30;;
16288;SDS011;26089;43.538;5.250;2023-03-23T15:01:46;2.93;;;2.00;;
16288;SDS011;26089;43.538;5.250;2023-03-23T15:04:16;3.37;;;2.10;;
16288;SDS011;26089;43.538;5.250;2023-03-23T15:06:46;5.73;;;2.10;;
16288;SDS011;26089;43.538;5.250;2023-03-23T15:09:18;3.27;;;2.07;;
16288;SDS011;26089;43.538;5.250;2023-03-23T15:11:51;3.30;;;2.00;;
16288;SDS011;26089;43.538;5.250;2023-03-23T15:14:22;3.00;;;1.93;;
16288;SDS011;26089;43.538;5.250;2023-03-23T15:16:52;5.80;;;1.87;;
16288;SDS011;26089;43.538;5.250;2023-03-23T15:19:22;3.80;;;2.00;;
16288;SDS011;26089;43.538;5.250;2023-03-23T15:21:53;4.40;;;2.10;;
16288;SDS011;26089;43.538;5.250;2023-03-23T15:24:25;7.33;;;2.00;;